createdAt,value
2022-11-28T00:00:10.495Z,58.70
2022-11-28T00:03:01.980Z,55.83
2022-11-28T00:05:31.052Z,60.80
2022-11-28T00:08:00.233Z,59.53
2022-11-28T00:10:28.838Z,57.50
2022-11-28T00:12:57.314Z,62.47
2022-11-28T00:15:26.006Z,59.17
2022-11-28T00:17:54.500Z,54.03
2022-11-28T00:20:23.934Z,62.73
2022-11-28T00:22:52.458Z,61.97
2022-11-28T00:25:20.950Z,63.93
2022-11-28T00:27:52.019Z,57.77
2022-11-28T00:30:21.847Z,59.77
2022-11-28T00:32:50.412Z,56.80
2022-11-28T00:35:18.964Z,59.93
2022-11-28T00:37:48.471Z,60.57
2022-11-28T00:40:17.757Z,61.93
2022-11-28T00:42:46.260Z,60.63
2022-11-28T00:45:18.258Z,57.35
2022-11-28T00:47:48.658Z,59.17
2022-11-28T00:50:17.802Z,56.90
2022-11-28T00:52:46.736Z,55.20
2022-11-28T00:55:15.626Z,57.87
2022-11-28T00:57:44.190Z,57.50
2022-11-28T01:00:16.125Z,60.40
2022-11-28T01:02:44.700Z,56.87
2022-11-28T01:05:17.028Z,56.13
2022-11-28T01:07:45.466Z,57.23
2022-11-28T01:10:18.630Z,56.27
2022-11-28T01:12:47.430Z,60.47
2022-11-28T01:15:15.978Z,59.90
2022-11-28T01:17:44.587Z,60.47
2022-11-28T01:20:14.780Z,62.53
2022-11-28T01:22:43.471Z,59.17
2022-11-28T01:25:13.323Z,61.67
2022-11-28T01:27:41.811Z,61.50
2022-11-28T01:30:10.678Z,57.63
2022-11-28T01:32:39.239Z,59.07
2022-11-28T01:35:14.507Z,57.47
2022-11-28T01:37:43.201Z,59.17
2022-11-28T01:40:16.805Z,58.53
2022-11-28T01:42:46.800Z,60.10
2022-11-28T01:45:20.083Z,56.13
2022-11-28T01:47:51.224Z,55.70
2022-11-28T01:50:22.375Z,55.87
2022-11-28T01:52:56.083Z,59.20
2022-11-28T01:55:29.062Z,60.20
2022-11-28T01:57:58.308Z,56.97
2022-11-28T02:00:27.298Z,57.23
2022-11-28T02:03:05.197Z,56.53
2022-11-28T02:05:47.303Z,57.03
2022-11-28T02:08:15.943Z,52.33
2022-11-28T02:11:05.625Z,53.80
2022-11-28T02:13:47.824Z,52.47
2022-11-28T02:16:35.060Z,50.57
2022-11-28T02:19:26.845Z,51.63
2022-11-28T02:22:01.246Z,50.40
2022-11-28T02:24:56.149Z,52.30
2022-11-28T02:30:14.559Z,46.37
2022-11-28T02:33:05.686Z,50.50
2022-11-28T02:35:40.966Z,50.03
2022-11-28T02:38:18.955Z,51.40
2022-11-28T02:40:56.737Z,51.90
2022-11-28T02:43:32.994Z,51.00
2022-11-28T02:46:10.586Z,51.20
2022-11-28T02:48:45.870Z,51.63
2022-11-28T02:51:18.356Z,51.45
2022-11-28T02:53:48.149Z,54.33
2022-11-28T02:56:16.990Z,53.53
2022-11-28T02:58:45.480Z,51.77
2022-11-28T03:01:20.620Z,54.63
2022-11-28T03:04:16.366Z,53.27
2022-11-28T03:06:54.271Z,51.50
2022-11-28T03:09:38.805Z,52.90
2022-11-28T03:12:20.838Z,51.20
2022-11-28T03:14:55.435Z,52.70
2022-11-28T03:17:32.754Z,51.70
2022-11-28T03:20:18.529Z,49.60
2022-11-28T03:22:59.136Z,51.67
2022-11-28T03:25:33.934Z,47.97
2022-11-28T03:28:08.770Z,49.07
2022-11-28T03:30:43.387Z,47.53
2022-11-28T03:33:14.536Z,48.83
2022-11-28T03:35:48.959Z,46.47
2022-11-28T03:38:27.727Z,47.87
2022-11-28T03:41:02.078Z,49.30
2022-11-28T03:43:38.926Z,47.27
2022-11-28T03:46:11.102Z,44.77
2022-11-28T03:48:49.665Z,47.77
2022-11-28T03:51:21.433Z,46.63
2022-11-28T03:54:05.063Z,47.97
2022-11-28T03:56:39.424Z,49.20
2022-11-28T03:59:13.221Z,46.20
2022-11-28T04:01:53.217Z,47.80
2022-11-28T04:04:29.684Z,46.55
2022-11-28T04:07:05.311Z,47.20
2022-11-28T04:09:43.579Z,44.10
2022-11-28T04:12:22.215Z,48.93
2022-11-28T04:15:00.079Z,49.67
2022-11-28T04:17:35.421Z,47.70
2022-11-28T04:20:14.515Z,48.13
2022-11-28T04:22:48.487Z,47.70
2022-11-28T04:27:52.963Z,44.17
2022-11-28T04:30:23.915Z,48.13
2022-11-28T04:32:59.244Z,48.77
2022-11-28T04:35:31.137Z,50.03
2022-11-28T04:38:01.700Z,49.63
2022-11-28T04:40:34.551Z,52.17
2022-11-28T04:43:08.688Z,50.13
2022-11-28T04:45:45.302Z,48.33
2022-11-28T04:48:17.174Z,49.70
2022-11-28T04:50:59.366Z,48.03
2022-11-28T04:53:35.383Z,47.10
2022-11-28T04:56:08.111Z,46.57
2022-11-28T04:58:40.828Z,45.73
2022-11-28T05:01:18.173Z,42.77
2022-11-28T05:03:49.648Z,44.97
2022-11-28T05:06:27.744Z,47.43
2022-11-28T05:08:58.783Z,47.10
2022-11-28T05:11:30.524Z,43.93
2022-11-28T05:13:59.021Z,42.20
2022-11-28T05:16:27.722Z,42.77
2022-11-28T05:18:57.791Z,41.80
2022-11-28T05:21:26.495Z,42.50
2022-11-28T05:23:55.463Z,42.47
2022-11-28T05:26:25.931Z,41.07
2022-11-28T05:28:54.488Z,43.80
2022-11-28T05:31:23.176Z,44.10
2022-11-28T05:33:56.143Z,42.63
2022-11-28T05:36:33.089Z,42.27
2022-11-28T05:39:01.590Z,42.03
2022-11-28T05:41:34.555Z,40.93
2022-11-28T05:44:03.125Z,43.40
2022-11-28T05:46:32.657Z,44.00
2022-11-28T05:49:02.931Z,44.17
2022-11-28T05:51:32.205Z,44.70
2022-11-28T05:54:00.999Z,46.40
2022-11-28T05:56:42.390Z,50.27
2022-11-28T05:59:12.302Z,49.03
2022-11-28T06:01:44.616Z,50.10
2022-11-28T06:04:16.688Z,50.83
2022-11-28T06:06:45.227Z,45.63
2022-11-28T06:09:13.762Z,47.83
2022-11-28T06:11:43.658Z,48.10
2022-11-28T06:14:12.367Z,47.23
2022-11-28T06:16:42.588Z,44.40
2022-11-28T06:19:13.245Z,46.10
2022-11-28T06:21:42.418Z,44.37
2022-11-28T06:24:11.046Z,42.10
2022-11-28T06:26:42.461Z,45.30
2022-11-28T06:29:10.356Z,42.60
2022-11-28T06:31:41.358Z,44.03
2022-11-28T06:34:12.957Z,47.40
2022-11-28T06:36:44.724Z,51.83
2022-11-28T06:39:17.209Z,50.23
2022-11-28T06:41:45.895Z,49.80
2022-11-28T06:44:17.990Z,47.17
2022-11-28T06:46:46.442Z,50.63
2022-11-28T06:49:15.014Z,47.93
2022-11-28T06:51:45.318Z,49.00
2022-11-28T06:54:13.827Z,50.13
2022-11-28T06:56:47.079Z,48.77
2022-11-28T06:59:15.561Z,49.50
2022-11-28T07:01:45.968Z,48.65
2022-11-28T07:04:14.585Z,47.57
2022-11-28T07:06:44.365Z,45.53
2022-11-28T07:09:13.148Z,45.83
2022-11-28T07:11:42.310Z,46.13
2022-11-28T07:14:11.165Z,46.07
2022-11-28T07:16:42.165Z,45.43
2022-11-28T07:19:12.387Z,43.93
2022-11-28T07:21:42.112Z,44.67
2022-11-28T07:24:10.721Z,47.07
2022-11-28T07:26:41.556Z,46.70
2022-11-28T07:29:13.991Z,46.30
2022-11-28T07:31:43.166Z,46.40
2022-11-28T07:34:16.628Z,45.83
2022-11-28T07:36:45.240Z,46.40
2022-11-28T07:39:17.430Z,46.33
2022-11-28T07:41:46.402Z,48.93
2022-11-28T07:44:17.289Z,46.50
2022-11-28T07:46:46.405Z,45.80
2022-11-28T07:49:15.731Z,43.50
2022-11-28T07:51:44.244Z,43.63
2022-11-28T07:54:12.825Z,44.43
2022-11-28T07:59:29.895Z,45.90
2022-11-28T08:01:59.884Z,43.87
2022-11-28T08:04:28.570Z,43.13
2022-11-28T08:06:58.550Z,44.60
2022-11-28T08:09:27.116Z,42.00
2022-11-28T08:11:56.060Z,45.23
2022-11-28T08:14:24.930Z,42.30
2022-11-28T08:16:53.568Z,42.47
2022-11-28T08:19:24.545Z,43.03
2022-11-28T08:21:53.380Z,40.73
2022-11-28T08:24:22.114Z,44.20
2022-11-28T08:26:50.657Z,41.97
2022-11-28T08:29:19.394Z,42.53
2022-11-28T08:31:48.151Z,42.35
2022-11-28T08:34:16.650Z,39.90
2022-11-28T08:36:46.844Z,43.90
2022-11-28T08:39:24.096Z,42.60
2022-11-28T08:41:56.513Z,41.27
2022-11-28T08:44:26.259Z,40.93
2022-11-28T08:46:55.830Z,39.00
2022-11-28T08:49:24.368Z,42.85
2022-11-28T08:51:52.876Z,44.20
2022-11-28T08:54:21.412Z,44.30
2022-11-28T08:56:50.246Z,42.70
2022-11-28T08:59:20.903Z,40.47
2022-11-28T09:01:49.470Z,38.03
2022-11-28T09:04:18.114Z,37.73
2022-11-28T09:06:46.877Z,39.27
2022-11-28T09:09:15.640Z,36.77
2022-11-28T09:11:44.736Z,36.67
2022-11-28T09:14:13.483Z,36.53
2022-11-28T09:16:43.057Z,38.97
2022-11-28T09:19:11.727Z,37.60
2022-11-28T09:21:43.932Z,40.00
2022-11-28T09:24:13.652Z,35.57
2022-11-28T09:26:43.145Z,37.43
2022-11-28T09:29:11.677Z,36.63
2022-11-28T09:31:47.356Z,36.30
2022-11-28T09:34:16.943Z,36.63
2022-11-28T09:36:45.537Z,36.70
2022-11-28T09:39:14.134Z,36.40
2022-11-28T09:42:00.690Z,37.23
2022-11-28T09:44:36.874Z,36.67
2022-11-28T09:47:12.894Z,35.37
2022-11-28T09:49:46.348Z,33.70
2022-11-28T09:52:26.653Z,33.60
2022-11-28T09:55:08.315Z,32.73
2022-11-28T09:57:44.046Z,31.67
2022-11-28T10:00:16.961Z,29.93
2022-11-28T10:03:00.691Z,32.77
2022-11-28T10:05:40.162Z,31.75
2022-11-28T10:08:21.637Z,32.10
2022-11-28T10:11:00.623Z,28.97
2022-11-28T10:14:06.797Z,30.07
2022-11-28T10:16:41.822Z,32.13
2022-11-28T10:19:31.546Z,29.20
2022-11-28T10:22:07.669Z,29.20
2022-11-28T10:24:40.170Z,29.60
2022-11-28T10:27:14.452Z,30.10
2022-11-28T10:32:18.059Z,31.70
2022-11-28T10:34:53.095Z,29.00
2022-11-28T10:37:25.892Z,29.53
2022-11-28T10:39:56.488Z,31.20
2022-11-28T10:42:31.813Z,28.80
2022-11-28T10:45:20.829Z,30.77
2022-11-28T10:48:38.044Z,30.10
2022-11-28T10:51:12.532Z,26.40
2022-11-28T10:53:52.331Z,27.97
2022-11-28T10:56:32.663Z,25.80
2022-11-28T10:59:12.384Z,25.43
2022-11-28T11:01:47.250Z,25.33
2022-11-28T11:04:21.748Z,22.70
2022-11-28T11:07:14.878Z,23.80
2022-11-28T11:09:46.849Z,25.07
2022-11-28T11:12:21.263Z,24.17
2022-11-28T11:14:49.919Z,22.13
2022-11-28T11:17:36.237Z,22.30
2022-11-28T11:20:26.265Z,21.13
2022-11-28T11:22:56.666Z,22.00
2022-11-28T11:25:27.960Z,22.47
2022-11-28T11:28:00.490Z,22.83
2022-11-28T11:30:32.055Z,23.87
2022-11-28T11:33:05.041Z,26.60
2022-11-28T11:35:42.799Z,22.67
2022-11-28T11:38:27.008Z,17.93
2022-11-28T11:40:55.740Z,21.83
2022-11-28T11:43:27.335Z,20.10
2022-11-28T11:46:08.970Z,22.20
2022-11-28T11:48:43.101Z,21.57
2022-11-28T11:51:24.081Z,22.20
2022-11-28T11:54:04.744Z,21.27
2022-11-28T11:56:38.185Z,23.27
2022-11-28T11:59:14.303Z,23.90
2022-11-28T12:01:45.845Z,20.97
2022-11-28T12:04:43.675Z,23.80
2022-11-28T12:07:21.662Z,25.88
2022-11-28T12:09:55.444Z,22.83
2022-11-28T12:12:26.055Z,22.55
2022-11-28T12:14:54.825Z,22.67
2022-11-28T12:20:41.966Z,22.40
2022-11-28T12:23:29.018Z,24.20
2022-11-28T12:26:06.683Z,23.20
2022-11-28T12:28:51.632Z,24.20
2022-11-28T12:34:31.163Z,24.55
2022-11-28T12:37:06.364Z,24.30
2022-11-28T12:39:48.224Z,25.37
2022-11-28T12:42:29.424Z,26.67
2022-11-28T12:45:28.023Z,25.70
2022-11-28T12:48:05.817Z,26.20
2022-11-28T12:50:38.030Z,26.37
2022-11-28T12:53:41.220Z,23.83
2022-11-28T12:56:25.436Z,25.80
2022-11-28T12:59:03.298Z,27.95
2022-11-28T13:01:47.412Z,28.10
2022-11-28T13:04:40.224Z,27.97
2022-11-28T13:07:18.930Z,29.40
2022-11-28T13:10:01.162Z,31.07
2022-11-28T13:12:45.511Z,29.77
2022-11-28T13:15:20.022Z,26.40
2022-11-28T13:17:54.001Z,29.23
2022-11-28T13:20:29.740Z,26.48
2022-11-28T13:23:12.810Z,28.50
2022-11-28T13:25:51.739Z,22.00
2022-11-28T13:28:27.721Z,29.50
2022-11-28T13:31:04.114Z,31.30
2022-11-28T13:33:46.784Z,27.40
2022-11-28T13:39:21.595Z,27.10
2022-11-28T13:42:28.388Z,28.03
2022-11-28T13:44:58.738Z,27.07
2022-11-28T13:47:31.789Z,27.23
2022-11-28T13:50:39.591Z,25.97
2022-11-28T13:53:25.170Z,26.97
2022-11-28T13:56:23.920Z,19.03
2022-11-28T13:58:56.387Z,26.20
2022-11-28T14:01:33.059Z,27.10
2022-11-28T14:04:09.785Z,29.50
2022-11-28T14:06:44.514Z,27.43
2022-11-28T14:09:34.543Z,28.90
2022-11-28T14:12:17.908Z,27.10
2022-11-28T14:15:08.304Z,26.75
2022-11-28T14:17:53.986Z,27.67
2022-11-28T14:20:31.034Z,24.87
2022-11-28T14:23:18.743Z,20.57
2022-11-28T14:25:50.551Z,25.40
2022-11-28T14:28:24.764Z,25.33
2022-11-28T14:31:02.910Z,24.80
2022-11-28T14:33:39.369Z,27.03
2022-11-28T14:36:27.372Z,27.70
2022-11-28T14:39:30.760Z,27.93
2022-11-28T14:42:59.715Z,27.17
2022-11-28T14:45:53.943Z,25.88
2022-11-28T14:48:30.338Z,28.37
2022-11-28T14:51:02.091Z,25.17
2022-11-28T14:53:44.041Z,27.87
2022-11-28T14:56:31.634Z,29.37
2022-11-28T14:59:04.490Z,29.80
2022-11-28T15:01:58.645Z,30.73
2022-11-28T15:04:50.704Z,29.87
2022-11-28T15:07:31.749Z,27.37
2022-11-28T15:10:09.650Z,24.73
2022-11-28T15:12:54.752Z,28.40
2022-11-28T15:15:23.855Z,26.63
2022-11-28T15:17:54.653Z,25.67
2022-11-28T15:20:30.553Z,27.97
2022-11-28T15:22:59.073Z,26.87
2022-11-28T15:25:35.398Z,27.93
2022-11-28T15:28:14.782Z,27.30
2022-11-28T15:30:49.834Z,25.00
2022-11-28T15:33:21.934Z,26.17
2022-11-28T15:35:59.665Z,27.37
2022-11-28T15:38:30.395Z,24.80
2022-11-28T15:41:00.335Z,25.13
2022-11-28T15:43:32.044Z,24.73
2022-11-28T15:46:01.821Z,26.20
2022-11-28T15:48:39.269Z,25.90
2022-11-28T15:51:25.994Z,23.50
2022-11-28T15:53:54.888Z,26.17
2022-11-28T15:56:24.252Z,27.13
2022-11-28T15:58:54.561Z,27.07
2022-11-28T16:01:25.295Z,27.07
2022-11-28T16:03:56.957Z,26.97
2022-11-28T16:06:30.076Z,25.83
2022-11-28T16:09:04.052Z,27.30
2022-11-28T16:11:37.189Z,25.90
2022-11-28T16:14:10.470Z,27.20
2022-11-28T16:16:44.867Z,27.60
2022-11-28T16:19:24.855Z,27.07
2022-11-28T16:21:56.506Z,29.17
2022-11-28T16:24:31.117Z,27.93
2022-11-28T16:27:05.614Z,29.10
2022-11-28T16:29:36.585Z,29.43
2022-11-28T16:32:21.216Z,28.80
2022-11-28T16:37:22.909Z,26.50
2022-11-28T16:40:02.038Z,27.33
2022-11-28T16:42:31.152Z,27.37
2022-11-28T16:45:09.435Z,27.17
2022-11-28T16:47:39.684Z,26.23
2022-11-28T16:50:20.992Z,28.90
2022-11-28T16:52:51.703Z,29.57
2022-11-28T16:55:40.765Z,28.23
2022-11-28T16:58:19.192Z,29.97
2022-11-28T17:00:59.193Z,20.93
2022-11-28T17:03:45.381Z,28.23
2022-11-28T17:06:23.047Z,27.37
2022-11-28T17:08:52.217Z,29.53
2022-11-28T17:11:23.895Z,28.50
2022-11-28T17:13:55.086Z,23.23
2022-11-28T17:16:27.288Z,29.10
2022-11-28T17:18:56.170Z,27.53
2022-11-28T17:21:31.985Z,28.07
2022-11-28T17:24:01.425Z,27.43
2022-11-28T17:26:30.669Z,27.27
2022-11-28T17:29:01.792Z,27.43
2022-11-28T17:31:34.476Z,29.30
2022-11-28T17:34:05.093Z,28.17
2022-11-28T17:36:33.676Z,27.93
2022-11-28T17:39:05.362Z,29.40
2022-11-28T17:41:35.770Z,27.37
2022-11-28T17:44:04.843Z,27.10
2022-11-28T17:46:37.320Z,25.80
2022-11-28T17:49:08.975Z,26.70
2022-11-28T17:51:37.711Z,27.60
2022-11-28T17:54:10.117Z,27.80
2022-11-28T17:56:41.724Z,28.13
2022-11-28T17:59:11.792Z,27.80
2022-11-28T18:01:43.480Z,26.67
2022-11-28T18:04:12.864Z,24.13
2022-11-28T18:06:44.220Z,26.77
2022-11-28T18:09:14.191Z,28.97
2022-11-28T18:11:46.197Z,27.37
2022-11-28T18:14:19.215Z,21.97
2022-11-28T18:16:49.103Z,26.20
2022-11-28T18:19:24.346Z,23.37
2022-11-28T18:21:53.378Z,25.70
2022-11-28T18:24:23.306Z,26.43
2022-11-28T18:26:54.334Z,26.35
2022-11-28T18:29:24.601Z,28.43
2022-11-28T18:31:55.469Z,27.27
2022-11-28T18:34:24.350Z,28.40
2022-11-28T18:37:00.201Z,27.30
2022-11-28T18:39:33.785Z,28.30
2022-11-28T18:42:02.504Z,28.83
2022-11-28T18:44:31.069Z,29.37
2022-11-28T18:47:00.182Z,28.03
2022-11-28T18:49:28.686Z,31.83
2022-11-28T18:51:57.492Z,29.00
2022-11-28T18:54:26.419Z,29.73
2022-11-28T18:56:54.951Z,29.27
2022-11-28T18:59:26.486Z,30.47
2022-11-28T19:01:55.040Z,30.30
2022-11-28T19:04:24.295Z,28.40
2022-11-28T19:06:53.171Z,28.77
2022-11-28T19:09:22.887Z,30.03
2022-11-28T19:11:51.635Z,28.00
2022-11-28T19:14:21.296Z,28.97
2022-11-28T19:16:53.160Z,27.50
2022-11-28T19:19:23.481Z,28.37
2022-11-28T19:21:52.160Z,27.73
2022-11-28T19:24:23.336Z,27.87
2022-11-28T19:26:52.081Z,27.07
2022-11-28T19:29:21.967Z,30.17
2022-11-28T19:31:53.437Z,29.73
2022-11-28T19:34:22.908Z,28.80
2022-11-28T19:36:51.536Z,29.30
2022-11-28T19:39:21.916Z,29.03
2022-11-28T19:41:54.362Z,29.17
2022-11-28T19:44:24.128Z,29.23
2022-11-28T19:46:53.257Z,29.70
2022-11-28T19:49:27.471Z,31.13
2022-11-28T19:51:57.443Z,30.43
2022-11-28T19:54:26.115Z,27.80
2022-11-28T19:56:56.091Z,29.23
2022-11-28T19:59:24.739Z,29.47
2022-11-28T20:01:53.425Z,29.53
2022-11-28T20:04:24.352Z,29.73
2022-11-28T20:06:53.157Z,25.97
2022-11-28T20:12:06.891Z,30.20
2022-11-28T20:14:41.950Z,30.20
2022-11-28T20:17:13.637Z,27.43
2022-11-28T20:19:42.959Z,27.17
2022-11-28T20:22:11.948Z,28.23
2022-11-28T20:24:41.137Z,26.23
2022-11-28T20:27:14.333Z,27.33
2022-11-28T20:29:44.032Z,25.63
2022-11-28T20:32:13.025Z,26.43
2022-11-28T20:34:41.973Z,27.73
2022-11-28T20:37:13.651Z,27.13
2022-11-28T20:39:45.796Z,28.67
2022-11-28T20:42:15.706Z,27.70
2022-11-28T20:44:44.500Z,28.47
2022-11-28T20:47:14.164Z,27.27
2022-11-28T20:49:45.124Z,27.73
2022-11-28T20:52:14.036Z,27.00
2022-11-28T20:54:47.722Z,25.40
2022-11-28T20:57:21.850Z,27.35
2022-11-28T20:59:52.019Z,27.57
2022-11-28T21:02:21.000Z,28.20
2022-11-28T21:04:49.749Z,24.57
2022-11-28T21:07:18.778Z,27.87
2022-11-28T21:09:48.984Z,21.23
2022-11-28T21:12:20.955Z,22.60
2022-11-28T21:14:51.471Z,19.80
2022-11-28T21:17:20.134Z,20.17
2022-11-28T21:19:48.692Z,20.87
2022-11-28T21:22:17.275Z,21.57
2022-11-28T21:24:50.668Z,20.93
2022-11-28T21:27:19.337Z,20.97
2022-11-28T21:29:50.016Z,21.07
2022-11-28T21:32:18.741Z,21.87
2022-11-28T21:34:47.316Z,23.20
2022-11-28T21:37:15.911Z,23.77
2022-11-28T21:39:47.451Z,21.53
2022-11-28T21:42:20.547Z,21.03
2022-11-28T21:44:49.632Z,20.80
2022-11-28T21:47:18.535Z,21.60
2022-11-28T21:49:47.178Z,19.40
2022-11-28T21:52:18.674Z,20.67
2022-11-28T21:54:52.736Z,20.77
2022-11-28T21:57:22.550Z,20.13
2022-11-28T21:59:51.394Z,21.70
2022-11-28T22:02:23.832Z,21.65
2022-11-28T22:04:55.714Z,22.60
2022-11-28T22:07:24.442Z,20.60
2022-11-28T22:09:53.812Z,22.43
2022-11-28T22:12:22.912Z,21.00
2022-11-28T22:14:51.587Z,20.80
2022-11-28T22:17:20.338Z,21.60
2022-11-28T22:19:50.656Z,21.87
2022-11-28T22:22:21.856Z,21.97
2022-11-28T22:24:50.884Z,19.20
2022-11-28T22:27:19.929Z,21.87
2022-11-28T22:29:49.003Z,22.83
2022-11-28T22:32:18.282Z,23.70
2022-11-28T22:34:46.920Z,21.63
2022-11-28T22:37:16.073Z,21.23
2022-11-28T22:39:51.974Z,22.27
2022-11-28T22:42:21.128Z,22.00
2022-11-28T22:44:50.400Z,21.33
2022-11-28T22:47:20.910Z,22.07
2022-11-28T22:49:49.423Z,23.97
2022-11-28T22:52:20.488Z,20.90
2022-11-28T22:54:50.643Z,22.80
2022-11-28T22:57:20.259Z,21.10
2022-11-28T22:59:49.559Z,21.10
2022-11-28T23:02:19.159Z,21.43
2022-11-28T23:04:52.499Z,18.80
2022-11-28T23:07:21.434Z,19.63
2022-11-28T23:09:50.876Z,20.67
2022-11-28T23:12:19.755Z,22.17
2022-11-28T23:14:52.161Z,20.60
2022-11-28T23:17:21.163Z,19.93
2022-11-28T23:19:52.872Z,21.30
2022-11-28T23:22:22.505Z,20.73
2022-11-28T23:24:52.057Z,20.07
2022-11-28T23:27:20.766Z,20.93
2022-11-28T23:29:49.611Z,19.73
2022-11-28T23:32:18.262Z,23.33
2022-11-28T23:34:47.447Z,21.30
2022-11-28T23:37:17.916Z,20.97
2022-11-28T23:39:46.771Z,20.63
2022-11-28T23:42:15.477Z,20.27
2022-11-28T23:44:44.236Z,21.40
2022-11-28T23:47:14.819Z,20.30
2022-11-28T23:49:43.670Z,20.83
2022-11-28T23:52:12.265Z,20.57
2022-11-28T23:54:41.748Z,22.13
2022-11-28T23:57:11.776Z,20.47
2022-11-28T23:59:43.830Z,21.50
